Terminal Aerodrome Forecast
Issued by NWS Cleveland, OH

Home | Current Version | Previous Version | Text Only | Print | Product List | Glossary Off
Versions: 1 2 3 4 5 6 7 8 9 10 11 12 13 14 15 16 17 18

000
FTUS41 KCLE 282333
TAFERI
TAF
KERI 282333Z 2900/2924 10010KT P6SM OVC080
     FM290400 11015KT P6SM OVC080
     FM290900 10015G25KT P6SM -RA OVC035
      TEMPO 2910/2914 3SM -RA
     FM291400 09020G30KT P6SM VCSH OVC050=

USA.gov is the U.S. government's official web portal to all federal, state and local government web resources and services.